Terminal Aerodrome Forecast
Issued by NWS

Home | Current Version | Previous Version | Text Only | Print | Product List | Glossary On
Versions: 1 2 3 4 5 6 7 8 9 10 11 12 13 14 15 16 17 18 19 20 21
000
FTUS43 KFGF 221133
TAFDVL
TAF
KDVL 221133Z 2212/2312 02013G20KT P6SM BKN200
     FM221600 03017G23KT P6SM VCSH BKN025
     FM221800 03016KT P6SM VCTS OVC025CB
     FM222100 02015KT P6SM OVC015
     FM230300 35015KT P6SM OVC008=

USA.gov is the U.S. government's official web portal to all federal, state and local government web resources and services.